createdAt,value
2022-12-03T00:01:53.857Z,12.15
2022-12-03T00:06:55.169Z,13.82
2022-12-03T00:11:56.503Z,14.23
2022-12-03T00:16:58.247Z,16.92
2022-12-03T00:21:59.549Z,13.45
2022-12-03T00:27:00.854Z,18.65
2022-12-03T00:32:02.191Z,13.02
2022-12-03T00:37:03.502Z,12.98
2022-12-03T00:42:05.028Z,12.57
2022-12-03T00:47:06.451Z,12.88
2022-12-03T00:52:07.952Z,12.35
2022-12-03T00:57:09.254Z,12.35
2022-12-03T01:02:10.605Z,14.48
2022-12-03T01:07:11.987Z,10.85
2022-12-03T01:12:13.667Z,13.85
2022-12-03T01:17:15.033Z,13.15
2022-12-03T01:22:16.350Z,11.40
2022-12-03T01:27:17.639Z,12.43
2022-12-03T01:32:22.039Z,12.40
2022-12-03T01:37:24.599Z,14.35
2022-12-03T01:42:27.894Z,15.02
2022-12-03T01:47:31.075Z,15.65
2022-12-03T01:52:34.158Z,10.32
2022-12-03T01:58:01.537Z,11.10
2022-12-03T02:03:07.316Z,15.65
2022-12-03T02:08:27.121Z,12.48
2022-12-03T02:13:28.634Z,14.13
2022-12-03T02:18:30.875Z,13.15
2022-12-03T02:23:39.474Z,14.52
2022-12-03T02:28:40.866Z,13.65
2022-12-03T02:33:42.186Z,12.50
2022-12-03T02:38:45.247Z,14.40
2022-12-03T02:43:46.553Z,12.95
2022-12-03T02:48:47.873Z,13.10
2022-12-03T02:53:50.624Z,11.50
2022-12-03T02:58:53.598Z,13.18
2022-12-03T03:03:55.081Z,13.88
2022-12-03T03:08:57.208Z,13.32
2022-12-03T03:14:00.392Z,15.27
2022-12-03T03:19:02.165Z,13.13
2022-12-03T03:24:03.976Z,13.02
2022-12-03T03:29:05.325Z,14.38
2022-12-03T03:34:06.661Z,15.23
2022-12-03T03:39:08.076Z,13.57
2022-12-03T03:44:09.688Z,14.35
2022-12-03T03:49:11.621Z,14.48
2022-12-03T03:54:15.535Z,12.52
2022-12-03T03:59:16.892Z,13.70
2022-12-03T04:04:20.382Z,17.23
2022-12-03T04:09:21.794Z,15.43
2022-12-03T04:14:23.082Z,16.10
2022-12-03T04:19:24.396Z,16.60
2022-12-03T04:24:25.688Z,17.77
2022-12-03T04:29:26.992Z,14.18
2022-12-03T04:34:47.080Z,17.30
2022-12-03T04:39:48.409Z,12.23
2022-12-03T04:44:49.917Z,14.07
2022-12-03T04:49:51.591Z,18.15
2022-12-03T04:54:53.266Z,19.95
2022-12-03T05:00:10.118Z,17.15
2022-12-03T05:05:11.429Z,13.65
2022-12-03T05:10:12.819Z,16.95
2022-12-03T05:15:14.124Z,17.05
2022-12-03T05:20:34.415Z,18.83
2022-12-03T05:25:35.709Z,15.65
2022-12-03T05:30:37.098Z,15.90
2022-12-03T05:35:38.489Z,14.35
2022-12-03T05:40:39.846Z,17.15
2022-12-03T05:45:42.512Z,21.38
2022-12-03T05:50:44.856Z,12.73
2022-12-03T05:55:48.939Z,18.42
2022-12-03T06:00:50.250Z,17.33
2022-12-03T06:05:51.627Z,21.25
2022-12-03T06:10:52.964Z,19.17
2022-12-03T06:15:54.299Z,17.38
2022-12-03T06:20:55.622Z,18.83
2022-12-03T06:25:56.933Z,16.65
2022-12-03T06:30:58.303Z,15.88
2022-12-03T06:35:59.651Z,22.15
2022-12-03T06:41:01.038Z,13.65
2022-12-03T06:46:02.374Z,20.15
2022-12-03T06:51:03.835Z,18.58
2022-12-03T06:56:05.351Z,20.85
2022-12-03T07:01:06.642Z,16.60
2022-12-03T07:06:08.003Z,15.43
2022-12-03T07:11:29.343Z,17.95
2022-12-03T07:16:30.749Z,19.30
2022-12-03T07:21:32.272Z,17.83
2022-12-03T07:26:33.562Z,18.17
2022-12-03T07:31:34.969Z,19.65
2022-12-03T07:36:36.380Z,19.55
2022-12-03T07:41:37.702Z,23.40
2022-12-03T07:46:39.059Z,27.08
2022-12-03T07:51:40.488Z,20.58
2022-12-03T07:56:42.418Z,20.52
2022-12-03T08:01:44.232Z,22.15
2022-12-03T08:06:45.702Z,17.83
2022-12-03T08:11:47.729Z,20.65
2022-12-03T08:16:49.242Z,17.15
2022-12-03T08:21:50.624Z,24.83
2022-12-03T08:26:51.995Z,19.15
2022-12-03T08:31:57.018Z,22.05
2022-12-03T08:37:01.355Z,21.40
2022-12-03T08:42:29.977Z,22.02
2022-12-03T08:47:31.310Z,17.25
2022-12-03T08:52:33.642Z,17.92
2022-12-03T08:57:34.955Z,17.42
2022-12-03T09:02:36.269Z,18.33
2022-12-03T09:07:37.610Z,15.88
2022-12-03T09:12:38.994Z,14.43
2022-12-03T09:17:40.297Z,16.88
2022-12-03T09:22:41.633Z,23.08
2022-12-03T09:27:42.943Z,16.88
2022-12-03T09:32:44.261Z,17.40
2022-12-03T09:37:45.566Z,14.05
2022-12-03T09:42:47.129Z,17.33
2022-12-03T09:47:49.263Z,17.50
2022-12-03T09:52:51.102Z,17.08
2022-12-03T09:57:53.184Z,14.63
2022-12-03T10:03:02.685Z,17.13
2022-12-03T10:08:05.695Z,13.30
2022-12-03T10:13:07.846Z,14.60
2022-12-03T10:18:16.753Z,17.35
2022-12-03T10:23:25.089Z,17.48
2022-12-03T10:28:34.094Z,19.60
2022-12-03T10:33:36.788Z,19.63
2022-12-03T10:38:38.118Z,17.58
2022-12-03T10:43:39.498Z,14.90
2022-12-03T10:48:40.813Z,15.27
2022-12-03T10:53:42.205Z,17.25
2022-12-03T10:58:43.544Z,19.95
2022-12-03T11:03:45.643Z,19.17
2022-12-03T11:08:54.723Z,15.55
2022-12-03T11:13:59.231Z,19.52
2022-12-03T11:19:01.614Z,16.00
2022-12-03T11:24:03.827Z,16.88
2022-12-03T11:29:12.198Z,20.70
2022-12-03T11:34:16.547Z,13.97
2022-12-03T11:39:37.804Z,14.85
2022-12-03T11:44:39.156Z,18.08
2022-12-03T11:49:45.005Z,14.15
2022-12-03T11:54:48.219Z,19.25
2022-12-03T11:59:59.738Z,16.80
2022-12-03T12:05:16.340Z,17.20
2022-12-03T12:10:36.380Z,15.77
2022-12-03T12:15:42.263Z,20.13
2022-12-03T12:20:43.628Z,13.98
2022-12-03T12:25:52.440Z,18.73
2022-12-03T12:30:55.384Z,19.02
2022-12-03T12:35:56.682Z,13.82
2022-12-03T12:40:58.097Z,15.43
2022-12-03T12:46:13.576Z,17.88
2022-12-03T12:51:20.331Z,17.15
2022-12-03T12:56:30.230Z,14.98
2022-12-03T13:01:32.132Z,14.35
2022-12-03T13:06:34.398Z,14.00
2022-12-03T13:11:36.798Z,15.82
2022-12-03T13:16:38.155Z,18.00
2022-12-03T13:21:40.562Z,19.35
2022-12-03T13:26:41.862Z,20.60
2022-12-03T13:31:50.411Z,18.77
2022-12-03T13:36:57.510Z,25.08
2022-12-03T13:42:31.210Z,18.65
2022-12-03T13:47:32.545Z,17.55
2022-12-03T13:52:34.490Z,21.00
2022-12-03T13:57:35.859Z,22.75
2022-12-03T14:02:37.301Z,20.48
2022-12-03T14:07:38.977Z,20.42
2022-12-03T14:12:40.398Z,22.77
2022-12-03T14:17:41.697Z,26.27
2022-12-03T14:22:43.015Z,23.98
2022-12-03T14:27:44.301Z,18.42
2022-12-03T14:32:45.665Z,21.80
2022-12-03T14:37:47.001Z,18.48
2022-12-03T14:42:48.324Z,19.02
2022-12-03T14:47:49.720Z,25.35
2022-12-03T14:52:51.028Z,16.80
2022-12-03T14:57:52.608Z,21.25
2022-12-03T15:02:54.038Z,21.88
2022-12-03T15:07:55.569Z,21.35
2022-12-03T15:12:57.011Z,30.17
2022-12-03T15:17:58.304Z,25.30
2022-12-03T15:22:59.612Z,20.67
2022-12-03T15:28:02.809Z,21.25
2022-12-03T15:33:04.251Z,20.17
2022-12-03T15:38:05.555Z,22.70
2022-12-03T15:43:07.744Z,19.33
2022-12-03T15:48:09.152Z,19.60
2022-12-03T15:53:10.454Z,20.40
2022-12-03T15:58:11.747Z,22.77
2022-12-03T16:03:13.210Z,21.38
2022-12-03T16:08:14.734Z,22.20
2022-12-03T16:13:16.153Z,19.83
2022-12-03T16:18:17.574Z,23.20
2022-12-03T16:23:18.905Z,22.25
2022-12-03T16:28:20.246Z,20.65
2022-12-03T16:33:27.260Z,22.67
2022-12-03T16:38:29.043Z,23.40
2022-12-03T16:43:30.567Z,22.20
2022-12-03T16:48:31.870Z,23.73
2022-12-03T16:53:33.231Z,23.17
2022-12-03T16:58:34.749Z,20.83
2022-12-03T17:03:36.098Z,24.45
2022-12-03T17:08:37.475Z,22.83
2022-12-03T17:13:38.781Z,21.15
2022-12-03T17:18:40.083Z,24.92
2022-12-03T17:23:41.414Z,21.42
2022-12-03T17:28:42.734Z,21.65
2022-12-03T17:33:44.049Z,21.85
2022-12-03T17:38:45.418Z,21.48
2022-12-03T17:43:46.755Z,20.27
2022-12-03T17:48:48.091Z,25.10
2022-12-03T17:53:49.422Z,22.77
2022-12-03T17:58:50.761Z,21.10
2022-12-03T18:03:52.144Z,20.45
2022-12-03T18:08:53.554Z,22.30
2022-12-03T18:13:54.919Z,22.73
2022-12-03T18:18:57.722Z,22.55
2022-12-03T18:24:02.126Z,22.20
2022-12-03T18:29:03.589Z,20.30
2022-12-03T18:34:04.904Z,21.25
2022-12-03T18:39:09.014Z,20.52
2022-12-03T18:44:10.674Z,20.65
2022-12-03T18:49:12.069Z,21.88
2022-12-03T18:54:13.730Z,22.10
2022-12-03T18:59:15.034Z,26.95
2022-12-03T19:04:16.354Z,23.38
2022-12-03T19:09:17.983Z,27.15
2022-12-03T19:14:19.312Z,19.90
2022-12-03T19:19:20.627Z,22.27
2022-12-03T19:24:24.792Z,17.55
2022-12-03T19:29:26.767Z,17.38
2022-12-03T19:34:28.083Z,25.20
2022-12-03T19:39:29.425Z,19.30
2022-12-03T19:44:30.847Z,21.85
2022-12-03T19:49:32.223Z,19.92
2022-12-03T19:54:33.567Z,19.50
2022-12-03T19:59:34.878Z,20.58
2022-12-03T20:04:37.437Z,23.15
2022-12-03T20:09:38.827Z,17.67
2022-12-03T20:14:40.166Z,22.17
2022-12-03T20:19:41.474Z,24.92
2022-12-03T20:24:42.782Z,23.95
2022-12-03T20:29:44.116Z,21.20
2022-12-03T20:34:45.681Z,21.17
2022-12-03T20:39:49.367Z,18.38
2022-12-03T20:44:51.365Z,16.60
2022-12-03T20:49:52.927Z,19.15
2022-12-03T20:54:54.350Z,18.90
2022-12-03T20:59:56.022Z,19.08
2022-12-03T21:04:57.613Z,19.38
2022-12-03T21:09:58.931Z,20.95
2022-12-03T21:15:00.365Z,16.15
2022-12-03T21:20:01.717Z,18.98
2022-12-03T21:25:03.143Z,19.20
2022-12-03T21:30:04.940Z,19.77
2022-12-03T21:35:06.604Z,20.58
2022-12-03T21:40:08.204Z,15.88
2022-12-03T21:45:09.717Z,17.90
2022-12-03T21:50:11.444Z,19.85
2022-12-03T21:55:12.805Z,19.25
2022-12-03T22:00:14.463Z,21.25
2022-12-03T22:05:18.909Z,24.42
2022-12-03T22:10:20.287Z,20.40
2022-12-03T22:15:21.647Z,21.05
2022-12-03T22:20:23.098Z,21.08
2022-12-03T22:25:24.413Z,20.92
2022-12-03T22:30:25.908Z,18.23
2022-12-03T22:35:27.233Z,18.13
2022-12-03T22:40:28.560Z,18.13
2022-12-03T22:45:29.866Z,18.95
2022-12-03T22:50:31.155Z,22.08
2022-12-03T22:55:32.461Z,20.52
2022-12-03T23:00:35.324Z,21.02
2022-12-03T23:05:38.505Z,18.77
2022-12-03T23:10:41.292Z,20.40
2022-12-03T23:15:46.484Z,22.67
2022-12-03T23:20:49.608Z,19.17
2022-12-03T23:25:56.815Z,25.13
2022-12-03T23:30:58.256Z,24.02
2022-12-03T23:35:59.623Z,23.20
2022-12-03T23:41:04.609Z,24.00
2022-12-03T23:46:10.549Z,22.85
2022-12-03T23:51:13.621Z,21.55
2022-12-03T23:56:16.581Z,16.42
